Falconer, NY (14733)

6:08 AM EDT on July 25, 2016 (GMT -0400)
ellicott | | Change Station

Elev 1516 ft 42.13 °N, 79.23 °W | Updated 51 seconds ago

Overcast
Overcast
71.6 °F
Feels Like 71 °F
N
0.0
Wind Variable Wind from SSE
Gusts 0.0 mph

Today
High -- | Low -- °F
--% Chance of Precip.
Yesterday
High -- | Low -- °F
Precip. -- in
Pressure 29.98 in
Visibility 7.0 miles
Clouds Scattered Clouds 2700 ft
Mostly Cloudy 4200 ft
Mostly Cloudy 12000 ft
Heat Index 71 °F
Dew Point 67 °F
Humidity 84%
Rainfall 0.22 in
Snow Depth Not available.
6:03 AM 8:42 PM
Waning Gibbous, 67% visible
METAR KJHW 250955Z AUTO 19006KT 7SM TS SCT027 BKN042 BKN120 21/19 A2998 RMK AO1 LTG DSNT N TSB17 P0001
Pressure 29.98 in
Visibility 7.0 miles
Clouds Scattered Clouds 2700 ft
Mostly Cloudy 4200 ft
Mostly Cloudy 12000 ft
Heat Index 71 °F
Dew Point 67 °F
Humidity 84%
Rainfall 0.22 in
Snow Depth Not available.
6:03 AM 8:42 PM
Waning Gibbous, 67% visible
METAR KJHW 250955Z AUTO 19006KT 7SM TS SCT027 BKN042 BKN120 21/19 A2998 RMK AO1 LTG DSNT N TSB17 P0001

10-Day Weather Forecast

Almanac

Astronomy

Jul. 25, 2016 Rise Set
Actual Time
Civil Twilight
Nautical Twilight
Astronomical Twilight
Moon
Length of Visible Light
Length of Day
Tomorrow will be .
, % of the Moon is Illuminated

Today's Extremes

State Highs State Lows

Community

WunderPhotos

Upload Photos

1,927,289 photos uploaded!

WunderBlog® & News

Nearby

Air Quality

  Air Quality AQ Index Pollutant
Not available.

Snow Depth

Station Depth Elevation

Earthquake Activity

City Distance Mag. Time & Date
Minimum magnitude displayed is 2.5.

Coastal Water Temperatures

Place Temperature

Stations

Nearby Weather Stations

Station Location Temp. Windchill Dew Point Humidity Wind Precip. Elev Updated Type
                   

Watches & Warnings

There are currently no watches in effect.